createdAt,value
2023-03-10T00:01:27.901Z,0.80
2023-03-10T00:04:00.940Z,0.70
2023-03-10T00:06:33.761Z,0.80
2023-03-10T00:09:04.567Z,0.90
2023-03-10T00:11:34.749Z,0.90
2023-03-10T00:14:04.971Z,0.70
2023-03-10T00:16:35.264Z,0.90
2023-03-10T00:19:05.791Z,0.80
2023-03-10T00:21:35.963Z,1.20
2023-03-10T00:24:06.785Z,0.80
2023-03-10T00:26:38.296Z,1.10
2023-03-10T00:29:08.490Z,0.80
2023-03-10T00:31:38.703Z,1.00
2023-03-10T00:34:11.178Z,0.90
2023-03-10T00:36:41.547Z,0.90
2023-03-10T00:39:13.421Z,0.80
2023-03-10T00:41:43.661Z,0.90
2023-03-10T00:44:14.233Z,0.90
2023-03-10T00:46:44.494Z,0.90
2023-03-10T00:49:17.582Z,0.60
2023-03-10T00:51:47.930Z,0.60
2023-03-10T00:54:18.098Z,0.90
2023-03-10T00:56:48.288Z,1.40
2023-03-10T00:59:18.510Z,0.90
2023-03-10T01:01:49.269Z,0.80
2023-03-10T01:04:21.092Z,0.80
2023-03-10T01:06:51.468Z,1.00
2023-03-10T01:09:21.587Z,0.90
2023-03-10T01:11:51.896Z,0.70
2023-03-10T01:14:22.180Z,0.70
2023-03-10T01:16:52.505Z,1.00
2023-03-10T01:19:24.326Z,1.00
2023-03-10T01:21:54.616Z,1.00
2023-03-10T01:24:24.834Z,1.00
2023-03-10T01:26:55.362Z,0.90
2023-03-10T01:29:26.069Z,1.20
2023-03-10T01:31:56.269Z,1.70
2023-03-10T01:34:26.878Z,1.30
2023-03-10T01:36:58.178Z,1.10
2023-03-10T01:39:28.597Z,0.90
2023-03-10T01:41:58.794Z,1.20
2023-03-10T01:44:28.984Z,1.00
2023-03-10T01:46:59.549Z,1.20
2023-03-10T01:49:39.495Z,1.00
2023-03-10T01:52:13.244Z,1.20
2023-03-10T01:54:50.409Z,1.00
2023-03-10T01:57:23.559Z,1.10
2023-03-10T01:59:55.469Z,1.10
2023-03-10T02:02:27.187Z,1.30
2023-03-10T02:04:58.023Z,1.00
2023-03-10T02:07:30.208Z,1.00
2023-03-10T02:10:01.244Z,1.00
2023-03-10T02:12:31.716Z,0.90
2023-03-10T02:15:02.735Z,1.00
2023-03-10T02:17:33.222Z,0.80
2023-03-10T02:20:13.242Z,0.80
2023-03-10T02:22:43.577Z,0.70
2023-03-10T02:25:29.456Z,1.20
2023-03-10T02:27:59.902Z,0.80
2023-03-10T02:30:33.009Z,0.60
2023-03-10T02:33:05.770Z,0.70
2023-03-10T02:35:36.246Z,0.90
2023-03-10T02:38:09.796Z,0.80
2023-03-10T02:40:45.652Z,0.80
2023-03-10T02:43:21.433Z,0.90
2023-03-10T02:45:56.254Z,1.10
2023-03-10T02:51:00.594Z,0.80
2023-03-10T02:53:31.755Z,0.70
2023-03-10T02:56:02.911Z,0.50
2023-03-10T02:58:34.682Z,0.70
2023-03-10T03:01:06.808Z,0.80
2023-03-10T03:03:40.333Z,0.90
2023-03-10T03:06:11.700Z,1.00
2023-03-10T03:08:42.382Z,0.90
2023-03-10T03:11:14.768Z,1.10
2023-03-10T03:13:45.245Z,1.00
2023-03-10T03:16:15.830Z,0.90
2023-03-10T03:18:46.927Z,0.80
2023-03-10T03:21:17.887Z,1.10
2023-03-10T03:23:49.770Z,1.10
2023-03-10T03:26:23.856Z,1.20
2023-03-10T03:28:56.427Z,1.10
2023-03-10T03:31:29.427Z,1.00
2023-03-10T03:34:10.541Z,1.10
2023-03-10T03:36:40.986Z,1.50
2023-03-10T03:39:13.521Z,1.30
2023-03-10T03:41:43.744Z,1.00
2023-03-10T03:44:14.437Z,1.20
2023-03-10T03:46:44.715Z,1.40
2023-03-10T03:49:15.015Z,1.40
2023-03-10T03:51:45.689Z,1.50
2023-03-10T03:54:16.010Z,1.20
2023-03-10T03:56:46.795Z,1.30
2023-03-10T03:59:17.285Z,1.50
2023-03-10T04:01:48.417Z,1.10
2023-03-10T04:04:18.701Z,1.40
2023-03-10T04:06:48.986Z,1.20
2023-03-10T04:09:19.357Z,1.40
2023-03-10T04:11:49.912Z,1.50
2023-03-10T04:14:20.052Z,1.40
2023-03-10T04:16:50.376Z,1.30
2023-03-10T04:19:20.847Z,1.50
2023-03-10T04:21:52.071Z,1.10
2023-03-10T04:24:23.514Z,0.80
2023-03-10T04:26:54.069Z,1.10
2023-03-10T04:29:24.782Z,1.20
2023-03-10T04:32:05.112Z,1.10
2023-03-10T04:34:36.993Z,1.30
2023-03-10T04:37:07.364Z,1.20
2023-03-10T04:39:38.136Z,1.20
2023-03-10T04:42:09.825Z,1.10
2023-03-10T04:44:43.583Z,1.50
2023-03-10T04:47:14.262Z,1.20
2023-03-10T04:49:44.459Z,1.40
2023-03-10T04:52:15.383Z,1.30
2023-03-10T04:54:45.890Z,1.50
2023-03-10T04:57:16.564Z,1.50
2023-03-10T04:59:47.411Z,1.80
2023-03-10T05:02:17.613Z,1.20
2023-03-10T05:04:48.272Z,1.30
2023-03-10T05:07:18.721Z,1.40
2023-03-10T05:12:20.884Z,1.60
2023-03-10T05:14:53.093Z,1.50
2023-03-10T05:17:23.610Z,1.30
2023-03-10T05:19:54.868Z,2.00
2023-03-10T05:22:25.165Z,1.70
2023-03-10T05:24:55.812Z,1.40
2023-03-10T05:27:26.352Z,1.40
2023-03-10T05:29:57.401Z,1.50
2023-03-10T05:32:29.208Z,1.10
2023-03-10T05:34:59.827Z,1.80
2023-03-10T05:37:30.368Z,2.10
2023-03-10T05:40:00.738Z,1.60
2023-03-10T05:42:31.061Z,4.30
2023-03-10T05:45:01.627Z,1.40
2023-03-10T05:47:33.702Z,1.70
2023-03-10T05:50:05.286Z,2.00
2023-03-10T05:52:39.191Z,1.70
2023-03-10T05:55:12.155Z,1.60
2023-03-10T06:00:15.441Z,2.10
2023-03-10T06:02:47.082Z,1.40
2023-03-10T06:05:17.526Z,1.90
2023-03-10T06:07:47.750Z,1.70
2023-03-10T06:10:18.656Z,1.40
2023-03-10T06:12:48.841Z,2.60
2023-03-10T06:15:19.310Z,2.00
2023-03-10T06:17:49.634Z,1.90
2023-03-10T06:20:19.998Z,1.70
2023-03-10T06:22:50.515Z,1.70
2023-03-10T06:25:21.376Z,1.90
2023-03-10T06:27:51.623Z,1.50
2023-03-10T06:30:22.392Z,2.10
2023-03-10T06:32:52.788Z,1.50
2023-03-10T06:35:23.974Z,1.90
2023-03-10T06:37:54.201Z,1.70
2023-03-10T06:40:25.325Z,2.40
2023-03-10T06:42:55.906Z,2.10
2023-03-10T06:45:26.125Z,1.80
2023-03-10T06:47:56.808Z,2.00
2023-03-10T06:50:29.797Z,1.90
2023-03-10T06:53:01.354Z,1.30
2023-03-10T06:55:31.620Z,1.60
2023-03-10T06:58:01.906Z,2.10
2023-03-10T07:00:32.178Z,1.80
2023-03-10T07:03:02.382Z,1.50
2023-03-10T07:05:32.622Z,1.40
2023-03-10T07:08:02.935Z,2.10
2023-03-10T07:10:33.130Z,1.60
2023-03-10T07:13:03.364Z,2.20
2023-03-10T07:15:33.678Z,2.10
2023-03-10T07:18:04.016Z,1.50
2023-03-10T07:20:34.285Z,1.70
2023-03-10T07:23:04.555Z,2.60
2023-03-10T07:25:37.237Z,1.90
2023-03-10T07:28:08.225Z,1.70
2023-03-10T07:30:39.820Z,1.70
2023-03-10T07:33:10.103Z,1.70
2023-03-10T07:35:40.366Z,2.90
2023-03-10T07:38:10.965Z,2.10
2023-03-10T07:40:42.608Z,1.90
2023-03-10T07:43:12.834Z,1.80
2023-03-10T07:45:43.256Z,1.60
2023-03-10T07:48:13.559Z,2.00
2023-03-10T07:50:44.611Z,1.90
2023-03-10T07:53:15.385Z,2.50
2023-03-10T07:55:45.712Z,1.70
2023-03-10T07:58:16.001Z,1.30
2023-03-10T08:00:46.140Z,2.10
2023-03-10T08:03:16.402Z,2.10
2023-03-10T08:05:47.527Z,1.60
2023-03-10T08:08:17.954Z,1.80
2023-03-10T08:10:48.499Z,3.30
2023-03-10T08:13:20.773Z,1.70
2023-03-10T08:15:52.282Z,1.50
2023-03-10T08:18:23.429Z,1.40
2023-03-10T08:20:53.651Z,1.60
2023-03-10T08:23:24.298Z,1.20
2023-03-10T08:25:54.634Z,1.40
2023-03-10T08:28:24.752Z,1.20
2023-03-10T08:31:04.042Z,1.40
2023-03-10T08:33:36.263Z,0.80
2023-03-10T08:36:10.131Z,0.90
2023-03-10T08:38:41.104Z,1.00
2023-03-10T08:41:14.556Z,1.20
2023-03-10T08:43:48.510Z,0.90
2023-03-10T08:46:20.114Z,1.70
2023-03-10T08:48:50.497Z,1.10
2023-03-10T08:51:21.542Z,1.10
2023-03-10T08:53:52.608Z,1.10
2023-03-10T08:56:24.306Z,1.10
2023-03-10T08:58:58.892Z,1.20
2023-03-10T09:01:31.692Z,1.30
2023-03-10T09:04:02.439Z,1.20
2023-03-10T09:06:33.621Z,0.90
2023-03-10T09:09:05.133Z,0.70
2023-03-10T09:11:39.029Z,0.60
2023-03-10T09:14:10.926Z,1.10
2023-03-10T09:16:41.870Z,0.80
2023-03-10T09:19:12.314Z,0.50
2023-03-10T09:21:42.977Z,0.60
2023-03-10T09:24:13.281Z,0.90
2023-03-10T09:26:44.779Z,0.50
2023-03-10T09:29:15.377Z,0.90
2023-03-10T09:31:47.808Z,1.00
2023-03-10T09:34:18.099Z,1.30
2023-03-10T09:36:48.309Z,0.90
2023-03-10T09:39:18.558Z,0.60
2023-03-10T09:42:09.164Z,0.90
2023-03-10T09:44:43.413Z,0.80
2023-03-10T09:47:27.565Z,0.90
2023-03-10T09:50:09.903Z,0.70
2023-03-10T09:52:45.345Z,0.90
2023-03-10T09:55:22.486Z,1.30
2023-03-10T09:57:55.895Z,1.20
2023-03-10T10:00:29.415Z,0.90
2023-03-10T10:03:09.029Z,1.50
2023-03-10T10:05:39.952Z,1.30
2023-03-10T10:08:19.393Z,1.10
2023-03-10T10:10:51.246Z,1.50
2023-03-10T10:13:23.171Z,1.10
2023-03-10T10:16:18.237Z,1.20
2023-03-10T10:18:52.224Z,1.50
2023-03-10T10:21:30.626Z,1.40
2023-03-10T10:24:03.664Z,1.30
2023-03-10T10:26:33.875Z,1.30
2023-03-10T10:29:10.870Z,1.10
2023-03-10T10:31:41.500Z,1.10
2023-03-10T10:34:21.597Z,1.30
2023-03-10T10:36:55.028Z,1.00
2023-03-10T10:39:31.253Z,1.50
2023-03-10T10:42:17.963Z,0.90
2023-03-10T10:44:48.644Z,0.60
2023-03-10T10:47:28.113Z,0.60
2023-03-10T10:50:12.131Z,1.40
2023-03-10T10:52:42.318Z,1.00
2023-03-10T10:55:26.231Z,1.10
2023-03-10T10:58:01.336Z,1.00
2023-03-10T11:00:34.105Z,1.00
2023-03-10T11:03:04.281Z,1.20
2023-03-10T11:05:38.709Z,1.20
2023-03-10T11:08:21.080Z,0.80
2023-03-10T11:10:55.953Z,1.10
2023-03-10T11:13:32.499Z,1.30
2023-03-10T11:16:07.711Z,1.60
2023-03-10T11:18:41.889Z,1.00
2023-03-10T11:21:16.436Z,0.90
2023-03-10T11:23:51.194Z,1.00
2023-03-10T11:26:35.580Z,0.90
2023-03-10T11:29:09.683Z,0.80
2023-03-10T11:31:43.801Z,1.00
2023-03-10T11:34:30.325Z,1.20
2023-03-10T11:37:09.496Z,1.20
2023-03-10T11:39:48.398Z,1.20
2023-03-10T11:42:26.789Z,1.30
2023-03-10T11:45:06.524Z,1.20
2023-03-10T11:47:46.138Z,0.90
2023-03-10T11:50:25.134Z,1.00
2023-03-10T11:52:58.180Z,0.90
2023-03-10T11:55:28.515Z,0.80
2023-03-10T11:58:23.679Z,1.00
2023-03-10T12:00:55.238Z,0.70
2023-03-10T12:03:35.691Z,0.80
2023-03-10T12:06:10.131Z,0.80
2023-03-10T12:08:41.853Z,0.60
2023-03-10T12:11:17.989Z,0.60
2023-03-10T12:13:50.526Z,0.80
2023-03-10T12:16:23.950Z,0.80
2023-03-10T12:18:54.382Z,0.90
2023-03-10T12:21:26.253Z,1.00
2023-03-10T12:23:57.537Z,1.00
2023-03-10T12:27:00.846Z,0.70
2023-03-10T12:29:46.115Z,0.60
2023-03-10T12:32:42.969Z,0.70
2023-03-10T12:35:36.794Z,0.70
2023-03-10T12:38:34.062Z,0.60
2023-03-10T12:41:04.624Z,0.60
2023-03-10T12:43:55.996Z,0.80
2023-03-10T12:46:43.657Z,0.60
2023-03-10T12:49:22.673Z,0.70
2023-03-10T12:51:54.467Z,0.50
2023-03-10T12:54:40.399Z,0.60
2023-03-10T12:57:16.865Z,0.90
2023-03-10T12:59:52.987Z,1.30
2023-03-10T13:02:39.845Z,0.80
2023-03-10T13:05:21.022Z,0.90
2023-03-10T13:07:54.174Z,0.70
2023-03-10T13:10:26.667Z,0.90
2023-03-10T13:13:00.939Z,1.00
2023-03-10T13:15:33.241Z,0.80
2023-03-10T13:18:16.868Z,0.70
2023-03-10T13:20:47.890Z,0.70
2023-03-10T13:23:23.484Z,0.60
2023-03-10T13:25:57.854Z,0.70
2023-03-10T13:28:29.700Z,0.90
2023-03-10T13:31:20.699Z,0.60
2023-03-10T13:33:54.179Z,0.70
2023-03-10T13:36:35.793Z,0.90
2023-03-10T13:39:16.217Z,0.70
2023-03-10T13:41:48.777Z,0.60
2023-03-10T13:44:21.789Z,1.20
2023-03-10T13:46:53.919Z,0.70
2023-03-10T13:49:26.913Z,0.70
2023-03-10T13:51:58.660Z,0.60
2023-03-10T13:54:31.062Z,0.60
2023-03-10T13:57:10.978Z,0.40
2023-03-10T13:59:41.782Z,0.60
2023-03-10T14:02:18.304Z,0.80
2023-03-10T14:04:50.006Z,0.50
2023-03-10T14:07:21.595Z,0.70
2023-03-10T14:10:17.326Z,0.70
2023-03-10T14:12:48.564Z,0.70
2023-03-10T14:15:26.485Z,0.70
2023-03-10T14:18:20.724Z,0.60
2023-03-10T14:20:51.239Z,0.50
2023-03-10T14:23:29.183Z,0.60
2023-03-10T14:25:59.783Z,0.80
2023-03-10T14:28:32.260Z,0.70
2023-03-10T14:31:04.624Z,1.00
2023-03-10T14:33:36.767Z,0.90
2023-03-10T14:36:11.991Z,1.20
2023-03-10T14:38:44.243Z,0.60
2023-03-10T14:41:15.599Z,1.10
2023-03-10T14:43:45.844Z,0.90
2023-03-10T14:46:16.183Z,0.80
2023-03-10T14:48:46.736Z,0.70
2023-03-10T14:51:32.655Z,0.60
2023-03-10T14:54:06.365Z,0.60
2023-03-10T14:56:36.637Z,0.60
2023-03-10T14:59:06.832Z,0.50
2023-03-10T15:01:38.806Z,0.50
2023-03-10T15:04:15.307Z,0.60
2023-03-10T15:06:45.760Z,0.60
2023-03-10T15:09:15.887Z,0.40
2023-03-10T15:11:46.199Z,0.30
2023-03-10T15:14:18.894Z,0.30
2023-03-10T15:16:49.114Z,0.40
2023-03-10T15:19:22.167Z,0.40
2023-03-10T15:21:52.311Z,0.30
2023-03-10T15:24:22.983Z,0.30
2023-03-10T15:26:53.399Z,0.30
2023-03-10T15:29:23.624Z,0.50
2023-03-10T15:31:53.867Z,0.30
2023-03-10T15:34:24.064Z,0.30
2023-03-10T15:36:56.363Z,0.20
2023-03-10T15:39:31.884Z,0.30
2023-03-10T15:42:03.251Z,0.30
2023-03-10T15:44:33.588Z,2.60
2023-03-10T15:47:03.867Z,0.70
2023-03-10T15:49:34.076Z,0.20
2023-03-10T15:52:04.497Z,0.20
2023-03-10T15:54:36.966Z,0.30
2023-03-10T15:57:09.741Z,0.30
2023-03-10T15:59:40.249Z,0.30
2023-03-10T16:02:12.025Z,0.30
2023-03-10T16:04:44.054Z,0.20
2023-03-10T16:07:15.147Z,0.30
2023-03-10T16:09:45.342Z,0.40
2023-03-10T16:12:15.548Z,0.30
2023-03-10T16:14:45.790Z,0.30
2023-03-10T16:17:16.085Z,0.30
2023-03-10T16:19:46.748Z,0.50
2023-03-10T16:22:17.075Z,0.60
2023-03-10T16:24:47.644Z,0.50
2023-03-10T16:27:18.119Z,0.30
2023-03-10T16:29:48.839Z,0.40
2023-03-10T16:32:19.750Z,0.40
2023-03-10T16:34:51.252Z,0.30
2023-03-10T16:37:21.507Z,0.30
2023-03-10T16:39:55.570Z,0.70
2023-03-10T16:42:27.216Z,0.50
2023-03-10T16:44:59.143Z,0.60
2023-03-10T16:47:29.459Z,0.40
2023-03-10T16:49:59.607Z,0.50
2023-03-10T16:52:30.593Z,0.70
2023-03-10T16:55:04.948Z,6.30
2023-03-10T16:57:36.020Z,1.50
2023-03-10T17:00:09.265Z,0.50
2023-03-10T17:02:39.866Z,0.70
2023-03-10T17:05:10.936Z,0.70
2023-03-10T17:07:54.685Z,0.80
2023-03-10T17:10:26.678Z,0.60
2023-03-10T17:12:56.994Z,0.60
2023-03-10T17:15:27.418Z,0.70
2023-03-10T17:17:57.777Z,0.60
2023-03-10T17:20:29.222Z,0.70
2023-03-10T17:22:59.430Z,0.90
2023-03-10T17:25:29.541Z,0.70
2023-03-10T17:28:00.467Z,0.70
2023-03-10T17:30:30.808Z,1.00
2023-03-10T17:33:01.090Z,0.90
2023-03-10T17:35:31.420Z,0.80
2023-03-10T17:38:01.773Z,0.60
2023-03-10T17:40:33.713Z,0.80
2023-03-10T17:43:17.671Z,0.50
2023-03-10T17:45:59.156Z,0.50
2023-03-10T17:48:30.133Z,0.50
2023-03-10T17:51:00.408Z,0.70
2023-03-10T17:53:31.110Z,0.50
2023-03-10T17:56:05.500Z,0.70
2023-03-10T17:58:35.797Z,0.70
2023-03-10T18:01:10.356Z,8.60
2023-03-10T18:03:41.180Z,1.60
2023-03-10T18:06:16.552Z,0.90
2023-03-10T18:08:47.215Z,0.70
2023-03-10T18:11:18.795Z,0.70
2023-03-10T18:13:49.130Z,0.50
2023-03-10T18:16:21.667Z,0.50
2023-03-10T18:18:52.523Z,0.60
2023-03-10T18:21:23.586Z,0.60
2023-03-10T18:23:54.004Z,0.50
2023-03-10T18:26:25.675Z,0.40
2023-03-10T18:28:55.983Z,0.30
2023-03-10T18:31:28.110Z,0.40
2023-03-10T18:33:58.645Z,0.50
2023-03-10T18:36:29.358Z,0.60
2023-03-10T18:38:59.916Z,0.40
2023-03-10T18:41:32.167Z,0.60
2023-03-10T18:44:02.386Z,1.00
2023-03-10T18:46:32.620Z,1.10
2023-03-10T18:49:03.366Z,1.10
2023-03-10T18:51:33.507Z,1.40
2023-03-10T18:54:05.351Z,0.90
2023-03-10T18:56:36.906Z,1.30
2023-03-10T18:59:07.424Z,1.20
2023-03-10T19:01:37.626Z,1.60
2023-03-10T19:04:08.504Z,1.30
2023-03-10T19:06:38.907Z,1.20
2023-03-10T19:09:09.189Z,1.20
2023-03-10T19:11:40.029Z,0.90
2023-03-10T19:14:10.268Z,0.90
2023-03-10T19:16:40.802Z,1.20
2023-03-10T19:19:11.157Z,1.40
2023-03-10T19:21:41.253Z,1.30
2023-03-10T19:24:11.900Z,1.80
2023-03-10T19:26:43.311Z,1.80
2023-03-10T19:29:13.680Z,1.70
2023-03-10T19:31:43.976Z,2.10
2023-03-10T19:34:14.306Z,1.80
2023-03-10T19:36:44.430Z,2.50
2023-03-10T19:39:16.204Z,2.20
2023-03-10T19:41:46.787Z,2.30
2023-03-10T19:44:17.061Z,2.60
2023-03-10T19:46:47.453Z,2.90
2023-03-10T19:49:17.940Z,3.60
2023-03-10T19:51:48.415Z,3.30
2023-03-10T19:54:19.277Z,2.60
2023-03-10T19:56:49.610Z,4.00
2023-03-10T19:59:20.614Z,3.10
2023-03-10T20:01:51.830Z,4.00
2023-03-10T20:04:22.331Z,3.20
2023-03-10T20:06:52.447Z,3.50
2023-03-10T20:09:23.079Z,3.40
2023-03-10T20:11:53.958Z,3.80
2023-03-10T20:14:24.356Z,2.90
2023-03-10T20:16:54.922Z,3.20
2023-03-10T20:19:25.413Z,3.60
2023-03-10T20:21:57.362Z,3.40
2023-03-10T20:24:27.721Z,4.20
2023-03-10T20:26:59.849Z,2.70
2023-03-10T20:29:30.360Z,3.10
2023-03-10T20:32:00.683Z,2.90
2023-03-10T20:34:31.112Z,2.80
2023-03-10T20:37:01.378Z,3.20
2023-03-10T20:39:31.620Z,3.50
2023-03-10T20:42:01.822Z,3.50
2023-03-10T20:44:32.045Z,2.60
2023-03-10T20:47:02.256Z,3.10
2023-03-10T20:49:32.972Z,3.40
2023-03-10T20:52:03.253Z,3.90
2023-03-10T20:54:33.471Z,3.70
2023-03-10T20:57:03.707Z,3.00
2023-03-10T20:59:34.319Z,3.30
2023-03-10T21:02:05.453Z,3.40
2023-03-10T21:04:35.698Z,3.30
2023-03-10T21:07:08.074Z,2.90
2023-03-10T21:09:38.266Z,3.00
2023-03-10T21:12:09.108Z,3.00
2023-03-10T21:14:39.333Z,2.50
2023-03-10T21:17:09.818Z,2.70
2023-03-10T21:19:40.182Z,2.80
2023-03-10T21:22:10.322Z,2.60
2023-03-10T21:24:40.597Z,2.10
2023-03-10T21:27:10.777Z,3.00
2023-03-10T21:29:42.131Z,2.10
2023-03-10T21:32:12.436Z,2.50
2023-03-10T21:34:42.786Z,2.30
2023-03-10T21:37:13.013Z,2.30
2023-03-10T21:39:43.263Z,2.90
2023-03-10T21:42:15.747Z,2.20
2023-03-10T21:44:47.226Z,2.60
2023-03-10T21:47:17.630Z,2.10
2023-03-10T21:49:48.854Z,2.10
2023-03-10T21:52:19.163Z,2.30
2023-03-10T21:54:49.344Z,2.10
2023-03-10T21:57:19.555Z,2.20
2023-03-10T21:59:50.040Z,2.00
2023-03-10T22:02:26.299Z,1.80
2023-03-10T22:04:56.994Z,1.90
2023-03-10T22:07:43.301Z,1.80
2023-03-10T22:10:17.855Z,2.40
2023-03-10T22:12:48.390Z,2.10
2023-03-10T22:15:21.871Z,2.20
2023-03-10T22:17:52.183Z,1.80
2023-03-10T22:20:24.888Z,1.90
2023-03-10T22:22:55.329Z,2.40
2023-03-10T22:25:26.392Z,1.80
2023-03-10T22:27:57.452Z,2.20
2023-03-10T22:30:28.473Z,2.60
2023-03-10T22:32:58.948Z,2.30
2023-03-10T22:35:29.388Z,1.60
2023-03-10T22:37:59.738Z,2.50
2023-03-10T22:40:30.560Z,2.20
2023-03-10T22:43:00.835Z,2.60
2023-03-10T22:45:32.776Z,2.10
2023-03-10T22:48:05.046Z,2.00
2023-03-10T22:50:37.342Z,1.70
2023-03-10T22:53:09.574Z,1.40
2023-03-10T22:55:42.548Z,2.00
2023-03-10T23:00:43.299Z,1.90
2023-03-10T23:03:14.005Z,1.90
2023-03-10T23:05:45.139Z,2.00
2023-03-10T23:08:16.715Z,1.60
2023-03-10T23:10:46.998Z,2.10
2023-03-10T23:13:18.076Z,2.00
2023-03-10T23:15:48.575Z,1.60
2023-03-10T23:18:19.733Z,2.00
2023-03-10T23:20:53.098Z,1.60
2023-03-10T23:23:23.698Z,1.60
2023-03-10T23:25:54.056Z,1.90
2023-03-10T23:28:24.409Z,1.80
2023-03-10T23:30:54.932Z,1.70
2023-03-10T23:33:26.483Z,1.70
2023-03-10T23:35:56.987Z,1.60
2023-03-10T23:38:27.680Z,1.60
2023-03-10T23:40:57.982Z,1.40
2023-03-10T23:43:28.138Z,1.50
2023-03-10T23:45:58.373Z,3.10
2023-03-10T23:48:29.021Z,2.10
2023-03-10T23:50:59.374Z,1.50
2023-03-10T23:53:29.781Z,1.90
2023-03-10T23:56:00.296Z,1.40
2023-03-10T23:58:30.523Z,2.00
